Abnaki, Vermont
Current Conditions -  °F | °C
As of 11:55 PM on Saturday 25 Oct 2014 (Local Time) from KFSO Reporting Station
Overcast Overcast  
Wind Chill: 51°   Ceiling: 9000
Heat Index: 51°   Visibility: 10mi
Dew Point: 48°   Wind: 3mph
Humidity: 88%   Direction: 190°S
Pressure: 29.42"   Gusts: NA
Location:  44.841°N, 73.2779°W
Report Text: KFSO 260355Z AUTO 19003KT 10SM SCT049 OVC090 11/09 A2942 RMK AO2 T01060087
Loading
Personal Weather Stations






























Interactive Weather Map
Tropical Storm Tracking
New forecast layout! Learn more

10-Day Weather Forecast

Advertisements
Track Severe Weather on mobile